Time;durP1;ratioP1;P1;durP2;ratioP2;P2;SDS_P1;SDS_P2;PMS_P1;PMS_P2;Temp;Humidity;BMP_temperature;BMP_pressure;BME280_temperature;BME280_humidity;BME280_pressure;Samples;Min_cycle;Max_cycle;Signal;HPM_P1;HPM_P2
2022/09/03 00:00:51;;;;;;;8.32;7.82;;;;;;;;;;5033298;28;20105;-72
2022/09/03 00:03:36;;;;;;;8.68;8.07;;;;;;;;;;5035818;28;20393;-74
2022/09/03 00:06:16;;;;;;;8.80;8.20;;;;;;;;;;5033831;28;20037;-73
2022/09/03 00:09:03;;;;;;;8.77;8.27;;;;;;;;;;5031350;28;20032;-73
2022/09/03 00:11:49;;;;;;;8.65;8.15;;;;;;;;;;5030571;28;20045;-74
2022/09/03 00:14:20;;;;;;;8.40;7.80;;;;;;;;;;5035180;28;20029;-72
2022/09/03 00:16:53;;;;;;;8.45;7.93;;;;;;;;;;5033036;28;20033;-74
2022/09/03 00:19:27;;;;;;;8.85;8.18;;;;;;;;;;5031242;28;20041;-73
2022/09/03 00:21:56;;;;;;;8.85;8.25;;;;;;;;;;5032603;28;20088;-73
2022/09/03 00:24:27;;;;;;;8.55;8.05;;;;;;;;;;5035525;28;20485;-73
2022/09/03 00:26:58;;;;;;;8.82;8.23;;;;;;;;;;5035282;28;20071;-73
2022/09/03 00:29:28;;;;;;;8.25;7.75;;;;;;;;;;5033161;28;20037;-73
2022/09/03 00:31:57;;;;;;;8.27;7.78;;;;;;;;;;5029664;28;20045;-74
2022/09/03 00:34:30;;;;;;;8.75;8.15;;;;;;;;;;5035636;28;20034;-73
2022/09/03 00:36:56;;;;;;;8.50;7.90;;;;;;;;;;5031779;28;20034;-74
2022/09/03 00:39:24;;;;;;;8.52;7.75;;;;;;;;;;5049311;28;20102;-73
2022/09/03 00:42:08;;;;;;;8.20;7.67;;;;;;;;;;5032383;28;20068;-73
2022/09/03 00:45:02;;;;;;;9.00;8.40;;;;;;;;;;5035408;28;20484;-74
2022/09/03 00:47:52;;;;;;;8.77;8.10;;;;;;;;;;5032508;28;20044;-74
2022/09/03 00:50:39;;;;;;;8.77;8.20;;;;;;;;;;5029440;28;20030;-74
2022/09/03 00:53:27;;;;;;;8.18;7.70;;;;;;;;;;5029328;28;20485;-73
2022/09/03 00:56:21;;;;;;;8.95;8.43;;;;;;;;;;5031670;28;20183;-73
2022/09/03 00:59:03;;;;;;;8.80;8.20;;;;;;;;;;5032066;28;20084;-74
2022/09/03 01:01:40;;;;;;;9.10;8.50;;;;;;;;;;5027298;28;20033;-73
2022/09/03 01:04:24;;;;;;;8.80;8.30;;;;;;;;;;5029018;28;20029;-73
2022/09/03 01:06:57;;;;;;;8.77;8.27;;;;;;;;;;5031876;28;20036;-73
2022/09/03 01:09:37;;;;;;;8.75;8.02;;;;;;;;;;5030924;28;20079;-74
2022/09/03 01:12:13;;;;;;;9.10;8.50;;;;;;;;;;5029634;28;20224;-73
2022/09/03 01:15:00;;;;;;;10.43;8.30;;;;;;;;;;5029983;28;20043;-73
2022/09/03 01:17:42;;;;;;;8.20;7.65;;;;;;;;;;5030783;28;20728;-73
2022/09/03 01:20:27;;;;;;;8.60;8.10;;;;;;;;;;5033501;28;20033;-73
2022/09/03 01:23:00;;;;;;;8.60;8.10;;;;;;;;;;5029625;28;21622;-73
2022/09/03 01:25:50;;;;;;;8.88;8.20;;;;;;;;;;5025307;28;20029;-74
2022/09/03 01:28:40;;;;;;;8.35;7.75;;;;;;;;;;5030729;28;20110;-75
2022/09/03 01:31:25;;;;;;;8.45;7.95;;;;;;;;;;5024613;28;20029;-74
2022/09/03 01:34:03;;;;;;;8.68;8.18;;;;;;;;;;5030849;28;20029;-73
2022/09/03 01:37:06;;;;;;;9.00;8.40;;;;;;;;;;5031838;28;20069;-74
2022/09/03 01:39:52;;;;;;;8.60;8.02;;;;;;;;;;5026894;28;20037;-74
2022/09/03 01:42:36;;;;;;;9.15;8.40;;;;;;;;;;5004149;28;20053;-72
2022/09/03 01:45:29;;;;;;;8.48;7.97;;;;;;;;;;5029896;28;20046;-72
2022/09/03 01:48:22;;;;;;;9.10;8.45;;;;;;;;;;5025484;28;20504;-73
2022/09/03 01:51:09;;;;;;;9.40;8.50;;;;;;;;;;5022808;28;20107;-73
2022/09/03 01:53:56;;;;;;;9.10;8.50;;;;;;;;;;5027685;28;20048;-73
2022/09/03 01:56:48;;;;;;;9.40;8.80;;;;;;;;;;5025223;28;20553;-73
2022/09/03 01:59:27;;;;;;;9.20;8.60;;;;;;;;;;5028163;28;20044;-73
2022/09/03 02:02:05;;;;;;;8.85;8.27;;;;;;;;;;5026124;28;20056;-74
2022/09/03 02:04:30;;;;;;;9.60;8.68;;;;;;;;;;5026947;28;20518;-73
2022/09/03 02:06:59;;;;;;;9.40;8.60;;;;;;;;;;5028202;28;20666;-73
2022/09/03 02:09:25;;;;;;;9.70;8.90;;;;;;;;;;5027964;28;20040;-74
2022/09/03 02:12:02;;;;;;;9.32;8.82;;;;;;;;;;5016391;28;20041;-73
2022/09/03 02:14:29;;;;;;;8.88;8.38;;;;;;;;;;5027634;28;20021;-73
2022/09/03 02:16:58;;;;;;;8.93;8.32;;;;;;;;;;5028619;28;20033;-73
2022/09/03 02:19:26;;;;;;;8.85;8.25;;;;;;;;;;5025063;28;20412;-74
2022/09/03 02:21:54;;;;;;;8.80;8.30;;;;;;;;;;5028362;28;20037;-73
2022/09/03 02:24:20;;;;;;;8.73;8.13;;;;;;;;;;5030569;28;20424;-73
2022/09/03 02:26:46;;;;;;;9.05;8.55;;;;;;;;;;5027190;28;20045;-73
2022/09/03 02:29:14;;;;;;;9.80;8.90;;;;;;;;;;5032391;28;20043;-73
2022/09/03 02:31:39;;;;;;;9.10;8.50;;;;;;;;;;5032449;28;20390;-73
2022/09/03 02:34:05;;;;;;;8.70;8.10;;;;;;;;;;5031775;28;20044;-73
2022/09/03 02:36:34;;;;;;;9.25;8.65;;;;;;;;;;5031094;28;20483;-73
2022/09/03 02:39:00;;;;;;;8.85;8.25;;;;;;;;;;5028191;28;20623;-73
2022/09/03 02:41:26;;;;;;;9.05;8.45;;;;;;;;;;5031248;28;20105;-74
2022/09/03 02:44:10;;;;;;;8.88;8.18;;;;;;;;;;5028474;28;20037;-73
2022/09/03 02:46:47;;;;;;;9.07;8.57;;;;;;;;;;5029028;28;20037;-74
2022/09/03 02:49:13;;;;;;;9.15;8.43;;;;;;;;;;5029545;28;20033;-74
2022/09/03 02:51:42;;;;;;;9.00;8.40;;;;;;;;;;5028532;28;20029;-74
2022/09/03 02:54:09;;;;;;;;;;;;;;;;;;5028226;28;20040;-74
2022/09/03 02:56:35;;;;;;;9.02;8.30;;;;;;;;;;5030504;28;19913;-73
2022/09/03 02:59:02;;;;;;;9.35;8.57;;;;;;;;;;5031764;28;20044;-73
2022/09/03 03:01:28;;;;;;;8.60;8.10;;;;;;;;;;5029701;28;20053;-73
2022/09/03 03:03:54;;;;;;;8.88;8.27;;;;;;;;;;5027879;28;20053;-74
2022/09/03 03:06:19;;;;;;;9.10;8.40;;;;;;;;;;5029136;28;20120;-74
2022/09/03 03:08:46;;;;;;;8.55;8.05;;;;;;;;;;5030288;28;20548;-73
2022/09/03 03:11:17;;;;;;;9.10;8.50;;;;;;;;;;5030653;28;20038;-72
2022/09/03 03:13:44;;;;;;;9.57;8.70;;;;;;;;;;5030616;28;20029;-73
2022/09/03 03:16:11;;;;;;;8.95;8.40;;;;;;;;;;5028381;28;20044;-74
2022/09/03 03:18:36;;;;;;;8.98;8.38;;;;;;;;;;5033345;28;20040;-74
2022/09/03 03:21:06;;;;;;;8.80;8.27;;;;;;;;;;5031503;28;20041;-74
2022/09/03 03:23:33;;;;;;;8.98;8.48;;;;;;;;;;5031371;28;20133;-74
2022/09/03 03:26:03;;;;;;;9.07;8.57;;;;;;;;;;5034258;28;20029;-73
2022/09/03 03:28:32;;;;;;;8.70;8.20;;;;;;;;;;5028388;28;20650;-74
2022/09/03 03:31:07;;;;;;;8.75;8.05;;;;;;;;;;5032612;28;20041;-73
2022/09/03 03:33:33;;;;;;;8.73;8.13;;;;;;;;;;5029092;28;20036;-73
2022/09/03 03:36:04;;;;;;;8.48;7.97;;;;;;;;;;5028541;28;20116;-72
2022/09/03 03:38:29;;;;;;;8.95;8.38;;;;;;;;;;5027205;28;20037;-73
2022/09/03 03:40:55;;;;;;;9.32;8.52;;;;;;;;;;5031443;28;20095;-73
2022/09/03 03:43:20;;;;;;;8.75;7.88;;;;;;;;;;5029484;28;20456;-74
2022/09/03 03:45:58;;;;;;;9.00;8.30;;;;;;;;;;5030031;28;20509;-73
2022/09/03 03:48:26;;;;;;;8.85;8.35;;;;;;;;;;5028945;28;20503;-73
2022/09/03 03:50:52;;;;;;;9.10;8.50;;;;;;;;;;5029799;28;20033;-73
2022/09/03 03:53:18;;;;;;;11.52;8.48;;;;;;;;;;5030004;28;20079;-73
2022/09/03 03:55:58;;;;;;;9.02;8.40;;;;;;;;;;5034302;28;20075;-73
2022/09/03 03:58:24;;;;;;;9.52;8.63;;;;;;;;;;5030838;28;20037;-72
2022/09/03 04:00:51;;;;;;;8.98;8.27;;;;;;;;;;5028520;28;20057;-73
2022/09/03 04:03:17;;;;;;;9.32;8.45;;;;;;;;;;5029969;28;20424;-72
2022/09/03 04:05:43;;;;;;;9.13;8.38;;;;;;;;;;5032064;28;20037;-74
2022/09/03 04:08:08;;;;;;;9.27;8.57;;;;;;;;;;5031267;28;20087;-74
2022/09/03 04:10:35;;;;;;;8.65;8.10;;;;;;;;;;5023157;28;20667;-74
2022/09/03 04:13:01;;;;;;;8.48;7.95;;;;;;;;;;5028606;28;20033;-73
2022/09/03 04:15:27;;;;;;;8.45;7.78;;;;;;;;;;5028406;28;20037;-74
2022/09/03 04:17:55;;;;;;;8.35;7.82;;;;;;;;;;5027322;28;20037;-73
2022/09/03 04:20:21;;;;;;;8.60;7.82;;;;;;;;;;5027393;28;20072;-74
2022/09/03 04:22:46;;;;;;;8.88;8.18;;;;;;;;;;5027969;28;20061;-73
2022/09/03 04:25:12;;;;;;;8.65;8.05;;;;;;;;;;5029661;28;20061;-74
2022/09/03 04:27:37;;;;;;;8.95;8.07;;;;;;;;;;5027459;28;20041;-73
2022/09/03 04:30:04;;;;;;;8.75;8.15;;;;;;;;;;5030054;28;20064;-74
2022/09/03 04:35:14;;;;;;;8.63;8.13;;;;;;;;;;5030105;28;20037;-74
2022/09/03 04:37:40;;;;;;;8.65;8.05;;;;;;;;;;5027829;28;20049;-74
2022/09/03 04:40:06;;;;;;;8.95;8.35;;;;;;;;;;5028278;28;20091;-74
2022/09/03 04:42:32;;;;;;;9.13;8.52;;;;;;;;;;5031100;28;20377;-74
2022/09/03 04:44:58;;;;;;;8.60;8.10;;;;;;;;;;5027768;28;20546;-75
2022/09/03 04:47:23;;;;;;;8.80;8.20;;;;;;;;;;5029479;28;20029;-74
2022/09/03 04:49:49;;;;;;;8.70;8.15;;;;;;;;;;5032436;28;20064;-74
2022/09/03 04:52:14;;;;;;;9.85;9.05;;;;;;;;;;5028963;28;20091;-74
2022/09/03 04:54:40;;;;;;;9.43;8.80;;;;;;;;;;5029746;28;20445;-73
2022/09/03 04:57:06;;;;;;;9.38;8.85;;;;;;;;;;5027722;28;20079;-74
2022/09/03 04:59:31;;;;;;;9.90;9.00;;;;;;;;;;5027662;28;20087;-74
2022/09/03 05:01:57;;;;;;;9.57;8.80;;;;;;;;;;5027635;28;20066;-74
2022/09/03 05:04:22;;;;;;;9.38;8.68;;;;;;;;;;5028639;28;20488;-74
2022/09/03 05:06:48;;;;;;;9.52;8.88;;;;;;;;;;5028907;28;20048;-74
2022/09/03 05:09:13;;;;;;;9.30;8.60;;;;;;;;;;5027635;28;20148;-73
2022/09/03 05:11:39;;;;;;;8.98;8.40;;;;;;;;;;5032360;28;20029;-74
2022/09/03 05:14:05;;;;;;;9.38;8.82;;;;;;;;;;5028157;28;20025;-74
2022/09/03 05:16:30;;;;;;;10.00;9.30;;;;;;;;;;5029563;28;20488;-73
2022/09/03 05:18:58;;;;;;;9.43;8.82;;;;;;;;;;5028667;28;20041;-73
2022/09/03 05:21:24;;;;;;;9.20;8.60;;;;;;;;;;5034086;28;20048;-73
2022/09/03 05:23:51;;;;;;;9.32;8.73;;;;;;;;;;5031726;28;20167;-73
2022/09/03 05:26:25;;;;;;;9.20;8.60;;;;;;;;;;5034324;28;20112;-73
2022/09/03 05:28:57;;;;;;;10.10;9.10;;;;;;;;;;5034983;28;20065;-73
2022/09/03 05:31:25;;;;;;;8.80;8.20;;;;;;;;;;5032270;28;20037;-74
2022/09/03 05:33:53;;;;;;;9.63;8.98;;;;;;;;;;5032621;28;20632;-73
2022/09/03 05:36:21;;;;;;;9.30;8.50;;;;;;;;;;5033999;28;20034;-73
2022/09/03 05:38:48;;;;;;;9.17;8.57;;;;;;;;;;5030236;28;20303;-74
2022/09/03 05:41:15;;;;;;;9.60;9.00;;;;;;;;;;5031170;28;20295;-73
2022/09/03 05:43:41;;;;;;;9.98;9.25;;;;;;;;;;5035078;28;20034;-73
2022/09/03 05:46:12;;;;;;;9.45;8.55;;;;;;;;;;5032641;28;20032;-72
2022/09/03 05:48:39;;;;;;;9.80;8.90;;;;;;;;;;5029027;28;20037;-73
2022/09/03 05:51:10;;;;;;;9.85;9.15;;;;;;;;;;5030451;28;20119;-73
2022/09/03 05:53:38;;;;;;;9.48;8.77;;;;;;;;;;5031094;28;20037;-73
2022/09/03 05:56:06;;;;;;;9.32;8.32;;;;;;;;;;5029204;28;20068;-73
2022/09/03 05:58:33;;;;;;;9.73;9.02;;;;;;;;;;5030101;28;20049;-73
2022/09/03 06:01:08;;;;;;;9.48;8.77;;;;;;;;;;5037217;28;20033;-73
2022/09/03 06:03:34;;;;;;;9.18;8.57;;;;;;;;;;5034471;28;20033;-73
2022/09/03 06:05:59;;;;;;;9.63;9.00;;;;;;;;;;5035438;28;20044;-73
2022/09/03 06:08:25;;;;;;;9.68;8.98;;;;;;;;;;5036121;28;20108;-74
2022/09/03 06:10:58;;;;;;;9.25;8.75;;;;;;;;;;5035281;28;20374;-73
2022/09/03 06:13:23;;;;;;;9.65;8.80;;;;;;;;;;5031422;28;20024;-73
2022/09/03 06:15:49;;;;;;;9.30;8.70;;;;;;;;;;5035398;28;20029;-73
2022/09/03 06:18:15;;;;;;;9.25;8.55;;;;;;;;;;5039149;28;20035;-73
2022/09/03 06:20:40;;;;;;;9.27;8.65;;;;;;;;;;5032911;28;20072;-73
2022/09/03 06:23:06;;;;;;;9.88;9.20;;;;;;;;;;5037309;28;20037;-73
2022/09/03 06:25:32;;;;;;;10.00;9.30;;;;;;;;;;5035587;28;20061;-73
2022/09/03 06:27:57;;;;;;;10.25;9.60;;;;;;;;;;5036687;28;20040;-73
2022/09/03 06:30:25;;;;;;;9.65;9.05;;;;;;;;;;5031677;28;20111;-73
2022/09/03 06:32:51;;;;;;;9.68;8.88;;;;;;;;;;5035287;28;20067;-73
2022/09/03 06:35:17;;;;;;;10.25;9.20;;;;;;;;;;5033333;28;20061;-73
2022/09/03 06:37:42;;;;;;;10.07;9.38;;;;;;;;;;5036069;28;20416;-72
2022/09/03 06:40:11;;;;;;;9.80;9.10;;;;;;;;;;5036903;28;20040;-73
2022/09/03 06:42:38;;;;;;;10.52;9.80;;;;;;;;;;5033931;28;20033;-72
2022/09/03 06:45:05;;;;;;;10.02;9.02;;;;;;;;;;5035085;28;20061;-72
2022/09/03 06:47:32;;;;;;;9.63;8.93;;;;;;;;;;5031893;28;20113;-74
2022/09/03 06:49:59;;;;;;;10.00;9.30;;;;;;;;;;5037065;28;20120;-73
2022/09/03 06:52:25;;;;;;;9.65;8.95;;;;;;;;;;5032856;28;20037;-73
2022/09/03 06:54:51;;;;;;;10.02;9.23;;;;;;;;;;5028337;28;20125;-73
2022/09/03 06:57:16;;;;;;;10.30;9.40;;;;;;;;;;5030132;28;20116;-72
2022/09/03 06:59:42;;;;;;;10.15;9.45;;;;;;;;;;5031640;28;20392;-72
2022/09/03 07:02:09;;;;;;;9.60;9.00;;;;;;;;;;5032787;28;20060;-72
2022/09/03 07:04:35;;;;;;;10.02;9.32;;;;;;;;;;5031006;28;20095;-72
2022/09/03 07:07:01;;;;;;;10.30;9.57;;;;;;;;;;5030050;28;20116;-73
2022/09/03 07:09:26;;;;;;;10.30;9.60;;;;;;;;;;5031362;28;20041;-72
2022/09/03 07:11:52;;;;;;;10.48;9.63;;;;;;;;;;5030139;28;20063;-72
2022/09/03 07:14:18;;;;;;;9.82;9.20;;;;;;;;;;5029905;28;20044;-72
2022/09/03 07:16:45;;;;;;;10.10;9.40;;;;;;;;;;5032981;28;20033;-72
2022/09/03 07:19:12;;;;;;;9.90;9.23;;;;;;;;;;5027501;28;20424;-73
2022/09/03 07:21:42;;;;;;;9.45;8.85;;;;;;;;;;5032323;28;20485;-73
2022/09/03 07:24:08;;;;;;;9.85;9.10;;;;;;;;;;5031316;28;20038;-73
2022/09/03 07:26:37;;;;;;;10.10;9.32;;;;;;;;;;5029248;28;20039;-72
2022/09/03 07:29:04;;;;;;;9.88;9.27;;;;;;;;;;5029780;28;20038;-73
2022/09/03 07:31:32;;;;;;;9.48;8.88;;;;;;;;;;5031023;28;20043;-73
2022/09/03 07:34:04;;;;;;;10.32;9.32;;;;;;;;;;5032646;28;20741;-73
2022/09/03 07:36:39;;;;;;;10.65;9.70;;;;;;;;;;5027821;28;20037;-73
2022/09/03 07:39:05;;;;;;;10.10;9.40;;;;;;;;;;5026907;28;20446;-73
2022/09/03 07:41:32;;;;;;;10.35;9.60;;;;;;;;;;5030779;28;20088;-73
2022/09/03 07:43:58;;;;;;;10.57;9.73;;;;;;;;;;5028419;28;20037;-74
2022/09/03 07:46:26;;;;;;;10.15;9.45;;;;;;;;;;5022864;28;20034;-73
2022/09/03 07:48:57;;;;;;;10.05;9.45;;;;;;;;;;5031338;28;20049;-73
2022/09/03 07:51:27;;;;;;;10.15;9.45;;;;;;;;;;5031106;28;20036;-73
2022/09/03 07:53:58;;;;;;;10.20;9.43;;;;;;;;;;5029191;28;20046;-73
2022/09/03 07:56:25;;;;;;;9.88;9.27;;;;;;;;;;5029597;28;20032;-73
2022/09/03 07:58:51;;;;;;;10.60;9.57;;;;;;;;;;5028378;28;20051;-73
2022/09/03 08:01:19;;;;;;;10.02;9.32;;;;;;;;;;5028417;28;20040;-73
2022/09/03 08:03:47;;;;;;;10.38;9.48;;;;;;;;;;5027829;28;20041;-73
2022/09/03 08:06:14;;;;;;;10.02;9.32;;;;;;;;;;5029629;28;20491;-74
2022/09/03 08:08:40;;;;;;;9.75;8.93;;;;;;;;;;5031065;28;20523;-73
2022/09/03 08:11:09;;;;;;;9.82;8.93;;;;;;;;;;5028539;28;20044;-73
2022/09/03 08:13:47;;;;;;;8.90;8.30;;;;;;;;;;5028589;28;20041;-73
2022/09/03 08:16:15;;;;;;;10.07;8.50;;;;;;;;;;5029507;28;20044;-73
2022/09/03 08:18:40;;;;;;;9.70;9.00;;;;;;;;;;5030029;28;20112;-73
2022/09/03 08:21:09;;;;;;;9.75;9.05;;;;;;;;;;5028189;28;20121;-73
2022/09/03 08:23:43;;;;;;;9.68;8.93;;;;;;;;;;5028111;28;20041;-73
2022/09/03 08:26:10;;;;;;;10.38;9.60;;;;;;;;;;5030281;28;20048;-73
2022/09/03 08:28:36;;;;;;;10.00;9.40;;;;;;;;;;5022843;28;20033;-73
2022/09/03 08:31:11;;;;;;;9.75;9.05;;;;;;;;;;5031118;28;20697;-73
2022/09/03 08:33:42;;;;;;;10.25;9.23;;;;;;;;;;5030048;28;20040;-74
2022/09/03 08:36:15;;;;;;;10.05;9.25;;;;;;;;;;5030570;28;20123;-73
2022/09/03 08:38:44;;;;;;;11.00;10.20;;;;;;;;;;5029383;28;20428;-74
2022/09/03 08:41:17;;;;;;;11.20;10.00;;;;;;;;;;5028887;28;20033;-74
2022/09/03 08:43:42;;;;;;;10.50;9.80;;;;;;;;;;5030405;28;20056;-74
2022/09/03 08:46:08;;;;;;;10.32;9.52;;;;;;;;;;5029640;28;20387;-73
2022/09/03 08:48:34;;;;;;;9.20;8.60;;;;;;;;;;5030434;28;20037;-73
2022/09/03 08:51:03;;;;;;;9.88;9.13;;;;;;;;;;5028794;28;20063;-73
2022/09/03 08:53:39;;;;;;;9.23;8.60;;;;;;;;;;5028573;28;20037;-73
2022/09/03 08:56:12;;;;;;;10.15;9.18;;;;;;;;;;5027292;28;20212;-73
2022/09/03 08:58:38;;;;;;;9.65;8.85;;;;;;;;;;5029219;28;20635;-74
2022/09/03 09:01:34;;;;;;;9.45;8.63;;;;;;;;;;5027746;28;20076;-73
2022/09/03 09:04:06;;;;;;;9.13;8.52;;;;;;;;;;5030625;28;20551;-74
2022/09/03 09:06:32;;;;;;;9.07;8.35;;;;;;;;;;5028023;28;20025;-74
2022/09/03 09:09:16;;;;;;;8.40;7.85;;;;;;;;;;5028773;28;20041;-74
2022/09/03 09:12:07;;;;;;;9.82;8.65;;;;;;;;;;5028537;28;20067;-73
2022/09/03 09:15:11;;;;;;;9.52;8.73;;;;;;;;;;5029456;28;20051;-73
2022/09/03 09:17:51;;;;;;;10.00;9.35;;;;;;;;;;4911686;29;20039;-73
2022/09/03 09:20:43;;;;;;;10.57;9.80;;;;;;;;;;4927569;29;20048;-73
2022/09/03 09:23:13;;;;;;;9.98;9.27;;;;;;;;;;4925453;29;20059;-73
2022/09/03 09:25:47;;;;;;;9.60;8.90;;;;;;;;;;4927156;29;20110;-73
2022/09/03 09:28:20;;;;;;;9.50;8.77;;;;;;;;;;4927026;29;20058;-73
2022/09/03 09:30:48;;;;;;;9.38;8.68;;;;;;;;;;4926829;29;20726;-73
2022/09/03 09:33:15;;;;;;;10.50;9.10;;;;;;;;;;4927571;29;20544;-73
2022/09/03 09:35:42;;;;;;;9.43;8.70;;;;;;;;;;4927358;29;20124;-73
2022/09/03 09:38:09;;;;;;;9.60;8.90;;;;;;;;;;4924965;29;20043;-73
2022/09/03 09:40:37;;;;;;;9.68;8.95;;;;;;;;;;4927705;29;20512;-72
2022/09/03 09:43:16;;;;;;;10.68;9.45;;;;;;;;;;4926250;29;20055;-73
2022/09/03 09:45:52;;;;;;;9.95;9.25;;;;;;;;;;4926769;29;20142;-73
2022/09/03 09:48:21;;;;;;;9.48;8.88;;;;;;;;;;4974105;28;20107;-73
2022/09/03 09:50:46;;;;;;;9.65;9.05;;;;;;;;;;5030355;28;20519;-73
2022/09/03 09:53:16;;;;;;;9.88;9.07;;;;;;;;;;5028373;28;20064;-74
2022/09/03 09:56:01;;;;;;;8.57;8.07;;;;;;;;;;5031935;28;20036;-73
2022/09/03 09:58:31;;;;;;;8.63;8.02;;;;;;;;;;5030584;28;20075;-72
2022/09/03 10:01:21;;;;;;;8.45;7.95;;;;;;;;;;5033071;28;20052;-73
2022/09/03 10:03:56;;;;;;;9.45;8.65;;;;;;;;;;5027968;28;20037;-74
2022/09/03 10:09:17;;;;;;;9.15;8.30;;;;;;;;;;5026998;28;20068;-74
2022/09/03 10:12:04;;;;;;;8.73;8.23;;;;;;;;;;5024679;28;20087;-73
2022/09/03 10:14:36;;;;;;;9.85;9.05;;;;;;;;;;5015433;28;20045;-73
2022/09/03 10:17:33;;;;;;;9.90;9.20;;;;;;;;;;5028476;28;20041;-74
2022/09/03 10:20:32;;;;;;;9.88;9.27;;;;;;;;;;5025782;28;20037;-74
2022/09/03 10:23:09;;;;;;;9.73;9.02;;;;;;;;;;5026047;28;20029;-74
2022/09/03 10:25:52;;;;;;;10.45;9.48;;;;;;;;;;5029279;28;20037;-74
2022/09/03 10:28:27;;;;;;;10.32;9.43;;;;;;;;;;5025379;28;20045;-74
2022/09/03 10:31:12;;;;;;;10.63;9.73;;;;;;;;;;5028833;28;20102;-75
2022/09/03 10:33:59;;;;;;;10.50;9.60;;;;;;;;;;5024995;28;20507;-74
2022/09/03 10:36:52;;;;;;;10.40;9.50;;;;;;;;;;5027100;28;20472;-74
2022/09/03 10:39:44;;;;;;;10.52;9.77;;;;;;;;;;5026857;28;20079;-75
2022/09/03 10:42:51;;;;;;;10.20;9.52;;;;;;;;;;5023914;28;20417;-75
2022/09/03 10:45:35;;;;;;;9.98;9.27;;;;;;;;;;5043053;28;20069;-74
2022/09/03 10:48:26;;;;;;;10.93;10.10;;;;;;;;;;5028294;28;20423;-74
2022/09/03 10:51:02;;;;;;;10.18;9.48;;;;;;;;;;5030960;28;20111;-74
2022/09/03 10:53:54;;;;;;;10.88;9.80;;;;;;;;;;5033755;28;20508;-74
2022/09/03 10:56:49;;;;;;;10.68;9.50;;;;;;;;;;5030598;28;20045;-74
2022/09/03 10:59:33;;;;;;;10.05;9.25;;;;;;;;;;5030548;28;20124;-75
2022/09/03 11:01:59;;;;;;;10.00;9.30;;;;;;;;;;5030332;28;20485;-75
2022/09/03 11:04:39;;;;;;;9.82;8.98;;;;;;;;;;5032410;28;20036;-74
2022/09/03 11:07:11;;;;;;;10.48;9.75;;;;;;;;;;5029487;28;20037;-74
2022/09/03 11:10:14;;;;;;;9.40;8.80;;;;;;;;;;5029801;28;20123;-75
2022/09/03 11:12:56;;;;;;;9.82;8.93;;;;;;;;;;5013699;28;20112;-74
2022/09/03 11:15:32;;;;;;;9.60;8.65;;;;;;;;;;5029685;28;20025;-75
2022/09/03 11:18:11;;;;;;;9.52;8.63;;;;;;;;;;5030284;28;20041;-74
2022/09/03 11:20:37;;;;;;;9.55;8.70;;;;;;;;;;5031390;28;20139;-75
2022/09/03 11:23:07;;;;;;;9.85;8.95;;;;;;;;;;5032797;28;20091;-74
2022/09/03 11:25:36;;;;;;;10.45;9.45;;;;;;;;;;5027727;28;20018;-75
2022/09/03 11:28:11;;;;;;;10.35;9.68;;;;;;;;;;5029494;28;20087;-74
2022/09/03 11:30:56;;;;;;;10.07;9.32;;;;;;;;;;5027964;28;20102;-74
2022/09/03 11:33:24;;;;;;;10.85;10.00;;;;;;;;;;5033308;28;20029;-74
2022/09/03 11:36:01;;;;;;;10.07;9.18;;;;;;;;;;5028621;28;20067;-75
2022/09/03 11:38:30;;;;;;;10.05;9.25;;;;;;;;;;5029525;28;20124;-74
2022/09/03 11:41:09;;;;;;;9.38;8.77;;;;;;;;;;5029840;28;20033;-74
2022/09/03 11:43:35;;;;;;;;;;;;;;;;;;5027638;28;20051;-74
2022/09/03 11:46:20;;;;;;;9.20;8.55;;;;;;;;;;5030802;28;19913;-75
2022/09/03 11:49:24;;;;;;;8.88;8.18;;;;;;;;;;5032039;28;20025;-74
2022/09/03 11:51:59;;;;;;;9.20;8.57;;;;;;;;;;5018991;28;20126;-75
2022/09/03 11:54:26;;;;;;;9.57;8.70;;;;;;;;;;5030544;28;20033;-74
2022/09/03 11:57:20;;;;;;;9.40;8.80;;;;;;;;;;5032958;28;20067;-74
2022/09/03 11:59:46;;;;;;;9.00;8.40;;;;;;;;;;5020531;28;20053;-74
2022/09/03 12:02:32;;;;;;;9.05;8.35;;;;;;;;;;5032200;28;20029;-74
2022/09/03 12:05:22;;;;;;;9.20;8.60;;;;;;;;;;5031963;28;20045;-75
2022/09/03 12:08:03;;;;;;;9.32;8.63;;;;;;;;;;5026730;28;20121;-75
2022/09/03 12:10:54;;;;;;;9.93;9.05;;;;;;;;;;5025797;28;20721;-75
2022/09/03 12:13:34;;;;;;;9.57;8.65;;;;;;;;;;5028222;28;20045;-75
2022/09/03 12:16:26;;;;;;;9.70;8.90;;;;;;;;;;5030746;28;20037;-75
2022/09/03 12:18:58;;;;;;;10.18;9.27;;;;;;;;;;5028445;28;20033;-75
2022/09/03 12:21:24;;;;;;;11.05;10.15;;;;;;;;;;5026330;28;20032;-74
2022/09/03 12:23:54;;;;;;;11.65;10.52;;;;;;;;;;5029791;28;20029;-75
2022/09/03 12:26:24;;;;;;;9.38;8.75;;;;;;;;;;5030805;28;20037;-73
2022/09/03 12:28:58;;;;;;;9.35;8.70;;;;;;;;;;5028408;28;20051;-74
2022/09/03 12:31:33;;;;;;;12.48;11.68;;;;;;;;;;5028730;28;20037;-73
2022/09/03 12:34:09;;;;;;;11.75;11.05;;;;;;;;;;5030940;28;20033;-74
2022/09/03 12:36:47;;;;;;;11.88;11.07;;;;;;;;;;5030587;28;20045;-74
2022/09/03 12:39:17;;;;;;;13.10;12.18;;;;;;;;;;5031582;28;20037;-74
2022/09/03 12:41:55;;;;;;;11.80;10.90;;;;;;;;;;5029147;28;20104;-73
2022/09/03 12:44:30;;;;;;;12.30;11.27;;;;;;;;;;5029565;28;20044;-75
2022/09/03 12:47:19;;;;;;;12.43;11.40;;;;;;;;;;5032578;28;20879;-75
2022/09/03 12:49:46;;;;;;;12.45;11.65;;;;;;;;;;5031203;28;20056;-76
2022/09/03 12:52:43;;;;;;;16.92;15.30;;;;;;;;;;5027072;28;20204;-75
2022/09/03 12:55:40;;;;;;;16.65;15.30;;;;;;;;;;5028753;28;20056;-76
2022/09/03 12:58:17;;;;;;;15.70;14.50;;;;;;;;;;5029902;28;20670;-75
2022/09/03 13:00:58;;;;;;;15.65;14.32;;;;;;;;;;5028624;28;20021;-76
2022/09/03 13:03:56;;;;;;;16.92;15.60;;;;;;;;;;5028690;28;20562;-75
2022/09/03 13:06:27;;;;;;;16.70;15.50;;;;;;;;;;5030835;28;20559;-75
2022/09/03 13:09:03;;;;;;;16.77;15.55;;;;;;;;;;5028642;28;20041;-75
2022/09/03 13:11:32;;;;;;;17.13;15.75;;;;;;;;;;5028450;28;20044;-76
2022/09/03 13:14:08;;;;;;;18.30;16.80;;;;;;;;;;5027096;28;20095;-75
2022/09/03 13:16:37;;;;;;;17.60;16.30;;;;;;;;;;5026921;28;20033;-75
2022/09/03 13:19:16;;;;;;;17.70;16.48;;;;;;;;;;5028608;28;20143;-76
2022/09/03 13:22:36;;;;;;;19.30;17.77;;;;;;;;;;5028845;28;20029;-75
2022/09/03 13:25:23;;;;;;;17.88;16.55;;;;;;;;;;4984300;28;20118;-76
2022/09/03 13:28:13;;;;;;;18.10;16.77;;;;;;;;;;5023468;28;20044;-75
2022/09/03 13:30:56;;;;;;;17.90;16.60;;;;;;;;;;5026122;28;20647;-76
2022/09/03 13:33:33;;;;;;;17.90;16.55;;;;;;;;;;5018025;28;20045;-75
2022/09/03 13:36:12;;;;;;;17.95;16.67;;;;;;;;;;5025190;28;20477;-76
2022/09/03 13:39:05;;;;;;;18.25;17.05;;;;;;;;;;5027784;28;20041;-75
2022/09/03 13:41:42;;;;;;;18.35;16.92;;;;;;;;;;5021292;28;20034;-74
2022/09/03 13:44:18;;;;;;;18.10;16.58;;;;;;;;;;5028737;28;20087;-75
2022/09/03 13:46:51;;;;;;;17.73;16.63;;;;;;;;;;5028143;28;20082;-75
2022/09/03 13:52:42;;;;;;;16.80;15.73;;;;;;;;;;5026569;28;20706;-75
2022/09/03 13:55:14;;;;;;;17.38;16.17;;;;;;;;;;5023562;28;20069;-76
2022/09/03 13:57:52;;;;;;;17.33;16.13;;;;;;;;;;5024419;28;20095;-75
2022/09/03 14:00:29;;;;;;;16.77;15.57;;;;;;;;;;5027451;28;20586;-75
2022/09/03 14:03:11;;;;;;;16.90;15.80;;;;;;;;;;5022893;28;20056;-75
2022/09/03 14:06:13;;;;;;;17.13;15.90;;;;;;;;;;5025827;28;20262;-75
2022/09/03 14:09:15;;;;;;;17.17;16.17;;;;;;;;;;5025924;28;20075;-75
2022/09/03 14:12:03;;;;;;;17.45;16.35;;;;;;;;;;5025780;28;20041;-75
2022/09/03 14:14:39;;;;;;;17.02;16.02;;;;;;;;;;5026184;28;20049;-75
2022/09/03 14:17:17;;;;;;;16.75;15.70;;;;;;;;;;5023759;28;20026;-75
2022/09/03 14:20:01;;;;;;;17.23;16.10;;;;;;;;;;5027525;28;20049;-75
2022/09/03 14:22:44;;;;;;;16.52;15.52;;;;;;;;;;5028392;28;20523;-75
2022/09/03 14:25:15;;;;;;;16.90;15.65;;;;;;;;;;5032767;28;20045;-75
2022/09/03 14:27:41;;;;;;;16.52;15.50;;;;;;;;;;5029990;28;20037;-75
2022/09/03 14:30:23;;;;;;;16.75;15.75;;;;;;;;;;5028379;28;20033;-75
2022/09/03 14:33:24;;;;;;;16.88;15.73;;;;;;;;;;5029998;28;20057;-75
2022/09/03 14:36:05;;;;;;;16.13;15.23;;;;;;;;;;5043359;28;20136;-75
2022/09/03 14:38:42;;;;;;;16.27;15.10;;;;;;;;;;5030729;28;20045;-75
2022/09/03 14:41:27;;;;;;;16.52;15.43;;;;;;;;;;5027837;28;20049;-75
2022/09/03 14:44:23;;;;;;;16.05;14.75;;;;;;;;;;5031003;28;20128;-74
2022/09/03 14:47:32;;;;;;;16.48;15.48;;;;;;;;;;5030325;28;20101;-75
2022/09/03 14:49:58;;;;;;;16.67;15.68;;;;;;;;;;4984050;28;20057;-74
2022/09/03 14:52:47;;;;;;;15.80;14.68;;;;;;;;;;4986907;28;20050;-75
2022/09/03 14:55:16;;;;;;;16.08;15.00;;;;;;;;;;4985177;28;20038;-75
2022/09/03 14:58:02;;;;;;;15.05;14.15;;;;;;;;;;4987325;28;20038;-76
2022/09/03 15:01:01;;;;;;;15.93;14.93;;;;;;;;;;4980541;23;20063;-63
2022/09/03 15:03:46;;;;;;;15.65;14.55;;;;;;;;;;4949997;28;20035;-62
2022/09/03 15:06:17;;;;;;;15.40;14.50;;;;;;;;;;4930277;28;20058;-63
2022/09/03 15:08:56;;;;;;;15.60;14.70;;;;;;;;;;4936825;28;20034;-64
2022/09/03 15:11:28;;;;;;;15.90;14.90;;;;;;;;;;4939944;29;20070;-64
2022/09/03 15:14:07;;;;;;;15.45;14.55;;;;;;;;;;4943116;29;20031;-63
2022/09/03 15:16:52;;;;;;;15.57;14.68;;;;;;;;;;4942197;28;20057;-63
2022/09/03 15:19:41;;;;;;;15.65;14.75;;;;;;;;;;4945495;28;20043;-64
2022/09/03 15:22:19;;;;;;;15.18;14.38;;;;;;;;;;4944882;29;20039;-64
2022/09/03 15:25:22;;;;;;;15.15;14.18;;;;;;;;;;4941022;28;20039;-63
2022/09/03 15:27:56;;;;;;;15.70;14.70;;;;;;;;;;4944751;28;20467;-63